createdAt,value
2019-01-28T00:02:02.600Z,91.00
2019-01-28T00:04:33.088Z,91.20
2019-01-28T00:07:03.718Z,91.10
2019-01-28T00:09:34.206Z,91.10
2019-01-28T00:12:04.837Z,91.10
2019-01-28T00:14:35.282Z,91.10
2019-01-28T00:17:05.863Z,91.10
2019-01-28T00:19:36.402Z,91.20
2019-01-28T00:22:07.077Z,91.20
2019-01-28T00:24:37.603Z,91.20
2019-01-28T00:27:08.095Z,91.00
2019-01-28T00:29:38.568Z,91.10
2019-01-28T00:32:09.070Z,91.10
2019-01-28T00:34:39.699Z,91.00
2019-01-28T00:37:10.154Z,91.00
2019-01-28T00:39:40.666Z,90.90
2019-01-28T00:42:11.401Z,90.90
2019-01-28T00:44:41.842Z,90.90
2019-01-28T00:47:12.270Z,90.90
2019-01-28T00:49:42.704Z,90.70
2019-01-28T00:52:13.166Z,90.70
2019-01-28T00:54:43.710Z,90.80
2019-01-28T00:57:14.157Z,90.70
2019-01-28T00:59:44.705Z,90.60
2019-01-28T01:02:15.242Z,90.90
2019-01-28T01:04:45.734Z,90.40
2019-01-28T01:07:17.677Z,90.40
2019-01-28T01:09:49.127Z,90.30
2019-01-28T01:12:19.760Z,90.40
2019-01-28T01:14:50.269Z,90.20
2019-01-28T01:17:20.758Z,90.10
2019-01-28T01:19:51.205Z,90.20
2019-01-28T01:22:21.698Z,90.30
2019-01-28T01:24:52.141Z,90.20
2019-01-28T01:27:22.667Z,90.50
2019-01-28T01:29:54.800Z,90.20
2019-01-28T01:32:25.303Z,90.30
2019-01-28T01:34:55.739Z,90.40
2019-01-28T01:37:26.242Z,90.40
2019-01-28T01:39:56.768Z,90.10
2019-01-28T01:42:27.518Z,90.20
2019-01-28T01:44:57.962Z,90.30
2019-01-28T01:47:28.426Z,90.20
2019-01-28T01:49:58.873Z,90.30
2019-01-28T01:52:29.335Z,90.30
2019-01-28T01:54:59.794Z,90.20
2019-01-28T01:57:30.331Z,90.60
2019-01-28T02:00:00.897Z,90.30
2019-01-28T02:02:33.390Z,90.10
2019-01-28T02:05:03.722Z,90.00
2019-01-28T02:07:34.213Z,90.20
2019-01-28T02:10:06.409Z,90.30
2019-01-28T02:12:36.874Z,90.30
2019-01-28T02:15:09.504Z,90.30
2019-01-28T02:17:40.010Z,90.60
2019-01-28T02:20:10.477Z,90.40
2019-01-28T02:22:41.329Z,90.80
2019-01-28T02:25:12.674Z,90.40
2019-01-28T02:27:43.125Z,90.40
2019-01-28T02:30:15.547Z,90.80
2019-01-28T02:32:46.080Z,90.40
2019-01-28T02:35:16.643Z,90.20
2019-01-28T02:37:47.120Z,90.30
2019-01-28T02:40:18.192Z,90.40
2019-01-28T02:42:48.623Z,90.40
2019-01-28T02:45:19.079Z,90.50
2019-01-28T02:47:50.335Z,90.60
2019-01-28T02:50:20.786Z,90.50
2019-01-28T02:52:51.382Z,90.80
2019-01-28T02:55:21.843Z,90.80
2019-01-28T02:57:52.285Z,90.90
2019-01-28T03:00:23.538Z,91.00
2019-01-28T03:02:54.046Z,91.10
2019-01-28T03:05:24.622Z,91.00
2019-01-28T03:07:55.090Z,91.10
2019-01-28T03:10:25.537Z,91.30
2019-01-28T03:12:55.986Z,91.40
2019-01-28T03:15:26.446Z,91.50
2019-01-28T03:17:56.922Z,91.50
2019-01-28T03:20:27.357Z,91.60
2019-01-28T03:22:57.805Z,91.60
2019-01-28T03:25:28.375Z,91.80
2019-01-28T03:27:58.838Z,91.80
2019-01-28T03:30:29.294Z,91.80
2019-01-28T03:32:59.766Z,91.90
2019-01-28T03:35:30.473Z,91.80
2019-01-28T03:38:00.916Z,91.80
2019-01-28T03:40:31.443Z,91.80
2019-01-28T03:43:01.928Z,91.80
2019-01-28T03:45:32.378Z,91.70
2019-01-28T03:48:02.839Z,91.70
2019-01-28T03:50:33.281Z,91.70
2019-01-28T03:53:03.935Z,91.50
2019-01-28T03:55:34.416Z,91.50
2019-01-28T03:58:05.200Z,91.10
2019-01-28T04:00:35.658Z,91.20
2019-01-28T04:03:06.131Z,91.10
2019-01-28T04:05:36.602Z,91.10
2019-01-28T04:08:07.106Z,91.00
2019-01-28T04:10:37.581Z,90.90
2019-01-28T04:13:08.053Z,90.80
2019-01-28T04:15:38.621Z,90.80
2019-01-28T04:18:09.069Z,90.70
2019-01-28T04:20:39.518Z,91.00
2019-01-28T04:23:09.955Z,90.50
2019-01-28T04:25:40.393Z,90.50
2019-01-28T04:28:10.871Z,90.50
2019-01-28T04:30:41.459Z,90.30
2019-01-28T04:33:11.930Z,90.10
2019-01-28T04:35:42.366Z,90.00
2019-01-28T04:38:12.823Z,90.00
2019-01-28T04:40:43.323Z,90.10
2019-01-28T04:43:13.774Z,90.00
2019-01-28T04:45:44.250Z,89.90
2019-01-28T04:48:14.974Z,89.00
2019-01-28T04:50:45.422Z,89.40
2019-01-28T04:53:15.850Z,89.30
2019-01-28T04:55:46.368Z,88.20
2019-01-28T04:58:16.808Z,88.20
2019-01-28T05:00:48.264Z,88.20
2019-01-28T05:03:18.882Z,88.40
2019-01-28T05:05:49.309Z,88.50
2019-01-28T05:08:19.780Z,88.10
2019-01-28T05:10:50.241Z,88.40
2019-01-28T05:13:20.708Z,87.90
2019-01-28T05:15:51.166Z,89.00
2019-01-28T05:18:21.653Z,88.10
2019-01-28T05:20:52.127Z,87.70
2019-01-28T05:23:22.631Z,88.50
2019-01-28T05:25:53.175Z,88.00
2019-01-28T05:28:23.633Z,87.70
2019-01-28T05:30:54.061Z,87.30
2019-01-28T05:33:24.506Z,87.20
2019-01-28T05:35:54.955Z,87.40
2019-01-28T05:38:25.965Z,87.60
2019-01-28T05:40:56.799Z,87.10
2019-01-28T05:43:27.256Z,87.00
2019-01-28T05:45:57.705Z,87.00
2019-01-28T05:48:28.426Z,87.00
2019-01-28T05:50:58.885Z,86.80
2019-01-28T05:53:29.362Z,87.00
2019-01-28T05:55:59.853Z,86.90
2019-01-28T05:58:30.589Z,87.00
2019-01-28T06:01:01.303Z,86.70
2019-01-28T06:03:31.735Z,85.90
2019-01-28T06:06:02.203Z,86.50
2019-01-28T06:08:32.644Z,86.80
2019-01-28T06:11:03.140Z,86.40
2019-01-28T06:13:33.567Z,86.70
2019-01-28T06:16:04.145Z,86.70
2019-01-28T06:18:34.619Z,86.70
2019-01-28T06:21:05.059Z,86.80
2019-01-28T06:23:35.544Z,86.80
2019-01-28T06:26:05.994Z,86.20
2019-01-28T06:28:36.514Z,86.30
2019-01-28T06:31:06.999Z,86.30
2019-01-28T06:33:37.458Z,86.00
2019-01-28T06:36:07.892Z,85.90
2019-01-28T06:38:38.369Z,85.70
2019-01-28T06:41:08.805Z,85.80
2019-01-28T06:43:39.313Z,85.90
2019-01-28T06:46:09.837Z,85.80
2019-01-28T06:48:40.306Z,85.70
2019-01-28T06:51:10.899Z,85.30
2019-01-28T06:53:41.697Z,85.80
2019-01-28T06:56:12.141Z,85.80
2019-01-28T06:58:42.581Z,85.60
2019-01-28T07:01:13.042Z,85.70
2019-01-28T07:03:43.494Z,85.80
2019-01-28T07:06:13.929Z,85.50
2019-01-28T07:08:44.404Z,85.90
2019-01-28T07:11:15.202Z,86.00
2019-01-28T07:13:45.646Z,85.80
2019-01-28T07:16:16.599Z,85.40
2019-01-28T07:18:47.194Z,85.60
2019-01-28T07:21:17.678Z,86.20
2019-01-28T07:23:48.127Z,86.20
2019-01-28T07:26:18.654Z,86.40
2019-01-28T07:28:49.119Z,86.20
2019-01-28T07:31:19.594Z,86.40
2019-01-28T07:33:50.074Z,86.70
2019-01-28T07:36:20.521Z,86.80
2019-01-28T07:38:51.074Z,87.10
2019-01-28T07:41:21.538Z,87.40
2019-01-28T07:43:52.290Z,87.60
2019-01-28T07:46:26.701Z,87.50
2019-01-28T07:48:57.504Z,87.40
2019-01-28T07:51:27.987Z,87.40
2019-01-28T07:53:58.441Z,87.30
2019-01-28T07:56:28.873Z,87.50
2019-01-28T07:58:59.574Z,87.30
2019-01-28T08:01:30.096Z,87.10
2019-01-28T08:04:00.542Z,86.50
2019-01-28T08:06:31.019Z,87.10
2019-01-28T08:09:01.767Z,86.50
2019-01-28T08:11:33.831Z,86.20
2019-01-28T08:14:04.938Z,86.20
2019-01-28T08:16:35.380Z,86.70
2019-01-28T08:19:05.831Z,85.60
2019-01-28T08:21:36.279Z,85.50
2019-01-28T08:24:06.725Z,85.30
2019-01-28T08:26:37.178Z,85.40
2019-01-28T08:29:07.624Z,84.90
2019-01-28T08:31:38.085Z,84.40
2019-01-28T08:34:08.534Z,85.00
2019-01-28T08:36:38.991Z,84.50
2019-01-28T08:39:10.026Z,83.50
2019-01-28T08:41:40.498Z,83.90
2019-01-28T08:44:11.038Z,83.90
2019-01-28T08:46:41.521Z,83.80
2019-01-28T08:49:12.298Z,83.40
2019-01-28T08:51:42.754Z,82.30
2019-01-28T08:54:13.222Z,82.50
2019-01-28T08:56:43.668Z,82.40
2019-01-28T08:59:14.148Z,81.70
2019-01-28T09:01:44.610Z,82.30
2019-01-28T09:04:15.090Z,81.70
2019-01-28T09:06:45.520Z,81.40
2019-01-28T09:09:15.980Z,81.40
2019-01-28T09:11:46.459Z,82.00
2019-01-28T09:14:16.894Z,81.50
2019-01-28T09:16:47.354Z,81.60
2019-01-28T09:19:29.139Z,81.20
2019-01-28T09:22:00.895Z,81.20
2019-01-28T09:24:31.330Z,80.20
2019-01-28T09:27:01.789Z,80.30
2019-01-28T09:29:32.254Z,80.10
2019-01-28T09:32:02.696Z,79.90
2019-01-28T09:34:33.427Z,79.50
2019-01-28T09:37:04.070Z,78.80
2019-01-28T09:39:34.823Z,79.00
2019-01-28T09:42:05.752Z,79.00
2019-01-28T09:44:36.211Z,78.40
2019-01-28T09:47:06.654Z,78.30
2019-01-28T09:49:37.267Z,78.20
2019-01-28T09:52:07.949Z,78.20
2019-01-28T09:54:38.421Z,78.30
2019-01-28T09:57:08.846Z,78.50
2019-01-28T09:59:40.342Z,78.10
2019-01-28T10:02:10.873Z,77.20
2019-01-28T10:04:41.356Z,77.70
2019-01-28T10:07:11.828Z,78.00
2019-01-28T10:09:42.291Z,78.00
2019-01-28T10:12:12.759Z,77.10
2019-01-28T10:14:43.227Z,76.90
2019-01-28T10:17:13.743Z,74.70
2019-01-28T10:19:44.220Z,75.30
2019-01-28T10:22:14.675Z,75.60
2019-01-28T10:24:45.122Z,75.80
2019-01-28T10:27:15.682Z,75.00
2019-01-28T10:29:46.177Z,74.60
2019-01-28T10:32:16.636Z,74.30
2019-01-28T10:34:47.116Z,74.50
2019-01-28T10:37:17.594Z,74.00
2019-01-28T10:39:48.066Z,73.10
2019-01-28T10:42:18.921Z,72.80
2019-01-28T10:44:49.457Z,72.90
2019-01-28T10:47:19.898Z,72.80
2019-01-28T10:49:50.379Z,72.80
2019-01-28T10:52:22.425Z,72.60
2019-01-28T10:54:53.365Z,71.80
2019-01-28T10:57:23.806Z,71.70
2019-01-28T10:59:54.620Z,71.70
2019-01-28T11:02:25.078Z,71.90
2019-01-28T11:04:55.626Z,72.40
2019-01-28T11:07:26.087Z,72.50
2019-01-28T11:09:56.806Z,71.80
2019-01-28T11:12:27.376Z,71.60
2019-01-28T11:14:57.918Z,72.30
2019-01-28T11:17:28.369Z,72.50
2019-01-28T11:19:58.855Z,73.20
2019-01-28T11:22:29.357Z,72.10
2019-01-28T11:25:01.485Z,71.50
2019-01-28T11:27:32.049Z,69.50
2019-01-28T11:30:02.674Z,69.60
2019-01-28T11:32:33.300Z,69.80
2019-01-28T11:35:04.487Z,66.30
2019-01-28T11:37:34.932Z,66.70
2019-01-28T11:40:24.774Z,66.10
2019-01-28T11:42:55.379Z,64.80
2019-01-28T11:45:28.629Z,66.50
2019-01-28T11:48:00.177Z,65.70
2019-01-28T11:50:30.685Z,64.40
2019-01-28T11:53:01.136Z,65.30
2019-01-28T11:55:31.611Z,65.90
2019-01-28T11:58:02.351Z,65.00
2019-01-28T12:00:39.817Z,64.80
2019-01-28T12:03:10.283Z,65.10
2019-01-28T12:05:40.735Z,64.40
2019-01-28T12:08:11.178Z,64.90
2019-01-28T12:10:41.678Z,64.90
2019-01-28T12:13:12.140Z,65.00
2019-01-28T12:15:42.619Z,65.10
2019-01-28T12:18:13.098Z,64.40
2019-01-28T12:20:44.728Z,65.00
2019-01-28T12:23:16.278Z,63.90
2019-01-28T12:25:48.500Z,64.10
2019-01-28T12:28:19.359Z,63.20
2019-01-28T12:30:51.114Z,64.10
2019-01-28T12:33:21.616Z,64.20
2019-01-28T12:35:52.111Z,64.60
2019-01-28T12:38:22.662Z,65.30
2019-01-28T12:40:53.208Z,65.90
2019-01-28T12:43:23.674Z,66.70
2019-01-28T12:45:54.119Z,66.30
2019-01-28T12:48:24.599Z,66.90
2019-01-28T12:50:55.070Z,66.70
2019-01-28T12:53:25.554Z,67.10
2019-01-28T12:55:56.438Z,67.30
2019-01-28T12:58:26.907Z,68.00
2019-01-28T13:01:04.462Z,67.80
2019-01-28T13:03:34.930Z,68.00
2019-01-28T13:06:05.682Z,68.20
2019-01-28T13:08:36.193Z,67.60
2019-01-28T13:11:06.677Z,68.00
2019-01-28T13:13:41.149Z,68.00
2019-01-28T13:16:10.781Z,67.90
2019-01-28T13:18:41.262Z,67.50
2019-01-28T13:21:11.765Z,67.90
2019-01-28T13:23:43.028Z,67.00
2019-01-28T13:26:13.563Z,66.10
2019-01-28T13:28:44.043Z,66.70
2019-01-28T13:31:14.791Z,66.80
2019-01-28T13:33:46.031Z,66.50
2019-01-28T13:36:16.516Z,66.60
2019-01-28T13:38:46.999Z,66.10
2019-01-28T13:41:17.828Z,66.10
2019-01-28T13:43:48.653Z,66.10
2019-01-28T13:46:19.139Z,66.20
2019-01-28T13:48:49.604Z,66.40
2019-01-28T13:51:20.097Z,66.90
2019-01-28T13:53:50.566Z,66.90
2019-01-28T13:56:21.355Z,67.20
2019-01-28T13:58:51.795Z,67.30
2019-01-28T14:01:22.278Z,67.60
2019-01-28T14:03:52.935Z,68.20
2019-01-28T14:06:23.394Z,68.50
2019-01-28T14:08:53.859Z,67.80
2019-01-28T14:11:24.330Z,67.90
2019-01-28T14:13:54.876Z,68.20
2019-01-28T14:16:25.411Z,69.20
2019-01-28T14:18:55.931Z,68.60
2019-01-28T14:21:26.696Z,68.50
2019-01-28T14:23:57.187Z,68.50
2019-01-28T14:26:27.668Z,68.50
2019-01-28T14:28:58.132Z,68.80
2019-01-28T14:31:28.656Z,68.90
2019-01-28T14:33:59.235Z,69.30
2019-01-28T14:39:02.230Z,69.20
2019-01-28T14:41:32.804Z,69.50
2019-01-28T14:44:03.276Z,69.10
2019-01-28T14:46:33.741Z,69.40
2019-01-28T14:49:04.295Z,69.70
2019-01-28T14:51:35.773Z,69.90
2019-01-28T14:54:06.532Z,69.70
2019-01-28T14:56:37.006Z,70.00
2019-01-28T14:59:07.500Z,70.20
2019-01-28T15:01:38.071Z,69.90
2019-01-28T15:04:09.895Z,70.20
2019-01-28T15:06:40.688Z,70.50
2019-01-28T15:09:12.276Z,71.00
2019-01-28T15:11:44.492Z,71.10
2019-01-28T15:14:14.975Z,71.00
2019-01-28T15:16:45.482Z,71.40
2019-01-28T15:19:15.964Z,72.10
2019-01-28T15:21:46.574Z,72.50
2019-01-28T15:24:17.075Z,73.00
2019-01-28T15:26:47.618Z,73.30
2019-01-28T15:29:18.215Z,73.80
2019-01-28T15:31:49.106Z,73.80
2019-01-28T15:34:19.582Z,74.00
2019-01-28T15:36:50.104Z,74.70
2019-01-28T15:39:20.636Z,75.20
2019-01-28T15:41:51.253Z,75.80
2019-01-28T15:44:21.720Z,75.50
2019-01-28T15:46:52.212Z,75.60
2019-01-28T15:49:22.675Z,75.60
2019-01-28T15:51:53.135Z,75.90
2019-01-28T15:54:35.011Z,76.20
2019-01-28T15:57:05.575Z,76.40
2019-01-28T15:59:36.052Z,76.50
2019-01-28T16:02:06.859Z,76.80
2019-01-28T16:04:37.360Z,77.30
2019-01-28T16:07:07.862Z,77.50
2019-01-28T16:09:38.358Z,77.70
2019-01-28T16:12:08.859Z,78.00
2019-01-28T16:14:39.389Z,78.30
2019-01-28T16:17:10.293Z,78.90
2019-01-28T16:19:40.739Z,79.10
2019-01-28T16:22:11.528Z,79.30
2019-01-28T16:24:41.271Z,79.80
2019-01-28T16:27:11.909Z,80.50
2019-01-28T16:29:42.411Z,81.20
2019-01-28T16:32:12.892Z,81.30
2019-01-28T16:34:43.453Z,81.30
2019-01-28T16:37:13.999Z,81.70
2019-01-28T16:39:44.812Z,82.10
2019-01-28T16:42:15.383Z,82.50
2019-01-28T16:44:45.867Z,82.80
2019-01-28T16:47:16.431Z,83.40
2019-01-28T16:49:46.989Z,83.70
2019-01-28T16:52:17.492Z,84.10
2019-01-28T16:54:48.035Z,84.40
2019-01-28T16:57:18.516Z,84.70
2019-01-28T16:59:48.981Z,84.90
2019-01-28T17:02:19.487Z,85.10
2019-01-28T17:04:50.008Z,85.50
2019-01-28T17:07:20.642Z,85.60
2019-01-28T17:09:51.129Z,85.90
2019-01-28T17:12:21.591Z,85.90
2019-01-28T17:14:52.083Z,86.40
2019-01-28T17:17:22.556Z,86.50
2019-01-28T17:19:53.034Z,86.80
2019-01-28T17:22:23.582Z,86.70
2019-01-28T17:24:53.132Z,86.70
2019-01-28T17:27:22.847Z,86.90
2019-01-28T17:29:53.111Z,87.10
2019-01-28T17:32:22.495Z,87.40
2019-01-28T17:34:51.967Z,87.60
2019-01-28T17:37:21.320Z,88.00
2019-01-28T17:39:50.602Z,87.90
2019-01-28T17:42:19.958Z,88.10
2019-01-28T17:44:49.330Z,88.40
2019-01-28T17:49:31.595Z,87.70
2019-01-28T17:52:02.176Z,88.80
2019-01-28T17:54:32.667Z,88.70
2019-01-28T17:57:03.160Z,88.40
2019-01-28T17:59:33.651Z,88.30
2019-01-28T18:02:04.116Z,87.60
2019-01-28T18:04:34.591Z,87.50
2019-01-28T18:07:05.483Z,87.20
2019-01-28T18:09:35.942Z,87.30
2019-01-28T18:12:06.401Z,87.60
2019-01-28T18:14:36.871Z,87.70
2019-01-28T18:17:07.357Z,87.80
2019-01-28T18:19:37.816Z,88.00
2019-01-28T18:22:09.074Z,88.50
2019-01-28T18:24:39.546Z,88.50
2019-01-28T18:27:10.014Z,88.90
2019-01-28T18:29:40.552Z,89.40
2019-01-28T18:32:11.097Z,89.20
2019-01-28T18:34:41.624Z,89.20
2019-01-28T18:37:12.174Z,89.10
2019-01-28T18:39:42.633Z,89.10
2019-01-28T18:42:13.099Z,89.20
2019-01-28T18:44:43.845Z,89.30
2019-01-28T18:47:15.163Z,89.30
2019-01-28T18:49:45.786Z,89.30
2019-01-28T18:52:16.259Z,89.40
2019-01-28T18:54:46.724Z,89.30
2019-01-28T18:57:18.816Z,89.50
2019-01-28T19:00:11.528Z,89.30
2019-01-28T19:02:42.026Z,89.30
2019-01-28T19:05:18.461Z,90.10
2019-01-28T19:07:53.537Z,89.60
2019-01-28T19:10:32.544Z,89.50
2019-01-28T19:13:22.098Z,89.50
2019-01-28T19:16:10.539Z,89.50
2019-01-28T19:19:03.416Z,89.90
2019-01-28T19:21:39.048Z,89.60
2019-01-28T19:24:09.868Z,89.70
2019-01-28T19:26:42.485Z,89.70
2019-01-28T19:29:12.969Z,90.00
2019-01-28T19:31:43.496Z,90.20
2019-01-28T19:34:14.090Z,90.20
2019-01-28T19:36:44.581Z,90.20
2019-01-28T19:39:14.040Z,90.10
2019-01-28T19:41:43.304Z,90.20
2019-01-28T19:44:12.541Z,90.20
2019-01-28T19:46:42.969Z,90.20
2019-01-28T19:49:13.458Z,90.30
2019-01-28T19:51:44.880Z,90.30
2019-01-28T19:54:15.336Z,90.40
2019-01-28T19:56:45.981Z,90.40
2019-01-28T19:59:16.531Z,90.20
2019-01-28T20:01:47.081Z,90.20
2019-01-28T20:04:17.562Z,90.20
2019-01-28T20:06:48.584Z,90.10
2019-01-28T20:09:20.663Z,90.10
2019-01-28T20:11:51.285Z,90.00
2019-01-28T20:14:21.746Z,90.00
2019-01-28T20:16:53.362Z,90.00
2019-01-28T20:19:43.248Z,89.90
2019-01-28T20:22:13.711Z,89.80
2019-01-28T20:24:44.632Z,89.60
2019-01-28T20:27:15.199Z,89.70
2019-01-28T20:29:45.644Z,89.80
2019-01-28T20:32:17.250Z,89.60
2019-01-28T20:34:48.783Z,89.50
2019-01-28T20:37:19.800Z,89.40
2019-01-28T20:39:50.419Z,89.30
2019-01-28T20:42:20.868Z,89.50
2019-01-28T20:44:51.346Z,89.40
2019-01-28T20:47:21.854Z,89.30
2019-01-28T20:49:52.324Z,89.40
2019-01-28T20:52:22.816Z,89.20
2019-01-28T20:54:53.318Z,89.00
2019-01-28T20:57:23.799Z,89.10
2019-01-28T20:59:54.265Z,89.10
2019-01-28T21:02:24.851Z,89.00
2019-01-28T21:04:55.355Z,89.10
2019-01-28T21:07:25.914Z,88.90
2019-01-28T21:09:56.430Z,88.80
2019-01-28T21:12:26.904Z,88.80
2019-01-28T21:14:57.723Z,88.80
2019-01-28T21:17:28.248Z,88.60
2019-01-28T21:19:58.763Z,88.60
2019-01-28T21:22:29.278Z,88.60
2019-01-28T21:24:59.762Z,88.40
2019-01-28T21:27:30.374Z,88.50
2019-01-28T21:30:00.995Z,88.40
2019-01-28T21:32:31.503Z,88.40
2019-01-28T21:35:02.379Z,88.40
2019-01-28T21:37:35.350Z,88.50
2019-01-28T21:40:07.376Z,88.50
2019-01-28T21:42:39.409Z,88.50
2019-01-28T21:45:10.813Z,88.50
2019-01-28T21:47:53.512Z,88.50
2019-01-28T21:50:25.543Z,88.50
2019-01-28T21:52:56.094Z,88.80
2019-01-28T21:55:26.636Z,88.90
2019-01-28T21:57:57.144Z,89.10
2019-01-28T22:00:30.089Z,89.10
2019-01-28T22:03:00.267Z,89.10
2019-01-28T22:05:32.427Z,89.10
2019-01-28T22:08:03.077Z,89.00
2019-01-28T22:10:33.528Z,89.00
2019-01-28T22:13:05.081Z,88.90
2019-01-28T22:15:35.597Z,89.20
2019-01-28T22:18:06.053Z,89.20
2019-01-28T22:20:36.511Z,88.90
2019-01-28T22:23:06.943Z,88.90
2019-01-28T22:25:37.689Z,89.10
2019-01-28T22:28:08.275Z,89.00
2019-01-28T22:30:39.902Z,89.20
2019-01-28T22:33:10.336Z,89.20
2019-01-28T22:35:40.813Z,89.20
2019-01-28T22:38:11.355Z,89.10
2019-01-28T22:40:41.805Z,89.10
2019-01-28T22:43:12.265Z,89.10
2019-01-28T22:45:42.899Z,89.00
2019-01-28T22:48:13.362Z,89.10
2019-01-28T22:50:44.215Z,89.20
2019-01-28T22:53:14.658Z,89.20
2019-01-28T22:55:45.143Z,89.30
2019-01-28T22:58:15.610Z,89.20
2019-01-28T23:00:53.810Z,89.10
2019-01-28T23:03:26.730Z,89.10
2019-01-28T23:05:58.155Z,89.20
2019-01-28T23:08:28.706Z,89.10
2019-01-28T23:10:59.556Z,88.90
2019-01-28T23:13:30.041Z,89.10
2019-01-28T23:16:00.519Z,89.00
2019-01-28T23:18:30.990Z,88.80
2019-01-28T23:21:01.457Z,88.80
2019-01-28T23:23:31.904Z,88.90
2019-01-28T23:26:02.359Z,89.00
2019-01-28T23:28:32.815Z,89.10
2019-01-28T23:31:03.287Z,89.00
2019-01-28T23:33:33.744Z,88.90
2019-01-28T23:36:04.878Z,89.20
2019-01-28T23:38:36.387Z,89.40
2019-01-28T23:41:07.814Z,89.50
2019-01-28T23:43:38.610Z,89.50
2019-01-28T23:46:09.384Z,89.80
2019-01-28T23:48:39.850Z,90.00
2019-01-28T23:51:10.306Z,89.80
2019-01-28T23:53:40.756Z,89.80
2019-01-28T23:56:11.215Z,89.90
2019-01-28T23:58:41.674Z,90.00
